createdAt,value
2022-10-02T00:00:15.614Z,64.60
2022-10-02T00:02:45.720Z,64.50
2022-10-02T00:05:33.992Z,64.40
2022-10-02T00:08:09.636Z,64.40
2022-10-02T00:11:01.659Z,64.30
2022-10-02T00:13:37.862Z,64.30
2022-10-02T00:16:34.942Z,64.40
2022-10-02T00:19:05.951Z,64.30
2022-10-02T00:21:36.112Z,64.20
2022-10-02T00:24:10.062Z,64.20
2022-10-02T00:26:49.674Z,64.20
2022-10-02T00:29:35.649Z,64.10
2022-10-02T00:32:23.289Z,64.10
2022-10-02T00:34:56.417Z,64.00
2022-10-02T00:37:40.748Z,64.00
2022-10-02T00:40:57.204Z,64.00
2022-10-02T00:43:38.675Z,63.80
2022-10-02T00:46:14.890Z,64.20
2022-10-02T00:49:12.391Z,63.80
2022-10-02T00:51:55.576Z,63.80
2022-10-02T00:54:33.350Z,63.70
2022-10-02T00:57:24.722Z,63.90
2022-10-02T01:00:03.490Z,63.90
2022-10-02T01:02:45.801Z,63.90
2022-10-02T01:05:17.120Z,64.60
2022-10-02T01:07:52.734Z,63.90
2022-10-02T01:10:24.319Z,63.90
2022-10-02T01:12:56.072Z,63.90
2022-10-02T01:15:32.798Z,63.90
2022-10-02T01:18:06.463Z,63.80
2022-10-02T01:20:46.978Z,63.80
2022-10-02T01:23:32.781Z,63.80
2022-10-02T01:26:03.267Z,63.80
2022-10-02T01:28:34.374Z,63.80
2022-10-02T01:31:12.571Z,63.20
2022-10-02T01:33:44.451Z,62.50
2022-10-02T01:36:17.186Z,61.90
2022-10-02T01:38:49.037Z,62.30
2022-10-02T01:41:19.185Z,62.50
2022-10-02T01:44:04.452Z,62.50
2022-10-02T01:47:04.477Z,62.20
2022-10-02T01:50:09.642Z,61.80
2022-10-02T01:52:51.585Z,61.20
2022-10-02T01:55:39.175Z,60.50
2022-10-02T01:58:15.128Z,59.10
2022-10-02T02:00:55.486Z,60.30
2022-10-02T02:03:38.995Z,61.50
2022-10-02T02:06:17.279Z,59.80
2022-10-02T02:09:05.185Z,60.10
2022-10-02T02:11:40.684Z,59.20
2022-10-02T02:14:19.420Z,59.30
2022-10-02T02:17:17.569Z,59.50
2022-10-02T02:20:03.454Z,58.40
2022-10-02T02:22:38.330Z,59.80
2022-10-02T02:25:16.024Z,57.90
2022-10-02T02:27:50.844Z,57.30
2022-10-02T02:30:23.015Z,57.40
2022-10-02T02:33:04.936Z,57.00
2022-10-02T02:35:44.711Z,57.40
2022-10-02T02:38:26.523Z,56.80
2022-10-02T02:40:59.827Z,57.00
2022-10-02T02:43:46.842Z,56.80
2022-10-02T02:47:01.584Z,56.60
2022-10-02T02:49:41.764Z,56.70
2022-10-02T02:52:17.829Z,56.70
2022-10-02T02:55:20.202Z,56.70
2022-10-02T02:58:17.316Z,56.40
2022-10-02T03:00:47.631Z,56.80
2022-10-02T03:03:18.142Z,57.10
2022-10-02T03:05:52.473Z,57.10
2022-10-02T03:08:35.866Z,57.10
2022-10-02T03:11:44.119Z,57.00
2022-10-02T03:14:38.198Z,57.00
2022-10-02T03:17:38.101Z,57.20
2022-10-02T03:20:28.730Z,57.40
2022-10-02T03:23:10.119Z,57.50
2022-10-02T03:26:01.037Z,57.50
2022-10-02T03:28:57.537Z,57.60
2022-10-02T03:31:30.622Z,57.60
2022-10-02T03:34:03.283Z,57.70
2022-10-02T03:36:35.112Z,57.70
2022-10-02T03:39:24.095Z,57.70
2022-10-02T03:41:55.563Z,57.70
2022-10-02T03:44:26.069Z,57.90
2022-10-02T03:46:56.320Z,58.00
2022-10-02T03:49:26.525Z,58.00
2022-10-02T03:51:56.733Z,58.10
2022-10-02T03:54:27.014Z,58.20
2022-10-02T03:57:01.248Z,58.20
2022-10-02T03:59:52.993Z,58.20
2022-10-02T04:02:33.697Z,58.20
2022-10-02T04:05:35.916Z,58.10
2022-10-02T04:08:21.868Z,58.10
2022-10-02T04:10:52.413Z,58.10
2022-10-02T04:13:38.413Z,58.20
2022-10-02T04:16:54.071Z,57.90
2022-10-02T04:19:40.187Z,57.90
2022-10-02T04:22:13.964Z,57.80
2022-10-02T04:24:54.004Z,57.80
2022-10-02T04:27:34.389Z,57.80
2022-10-02T04:30:19.594Z,57.50
2022-10-02T04:32:50.269Z,57.60
2022-10-02T04:35:22.853Z,57.80
2022-10-02T04:38:08.967Z,57.70
2022-10-02T04:41:03.686Z,57.50
2022-10-02T04:43:57.416Z,57.30
2022-10-02T04:46:45.312Z,57.60
2022-10-02T04:49:24.723Z,57.60
2022-10-02T04:52:31.418Z,57.70
2022-10-02T04:55:25.851Z,57.70
2022-10-02T04:58:01.742Z,57.80
2022-10-02T05:00:45.137Z,57.80
2022-10-02T05:03:35.403Z,58.40
2022-10-02T05:06:19.982Z,57.80
2022-10-02T05:08:59.086Z,57.80
2022-10-02T05:11:52.212Z,57.80
2022-10-02T05:14:40.433Z,57.70
2022-10-02T05:17:24.215Z,57.80
2022-10-02T05:20:34.929Z,57.70
2022-10-02T05:23:11.872Z,57.80
2022-10-02T05:26:05.115Z,57.90
2022-10-02T05:29:01.059Z,57.80
2022-10-02T05:31:55.306Z,57.80
2022-10-02T05:34:42.601Z,57.80
2022-10-02T05:37:38.711Z,57.50
2022-10-02T05:40:20.812Z,57.60
2022-10-02T05:43:11.094Z,57.90
2022-10-02T05:45:54.589Z,57.80
2022-10-02T05:48:40.586Z,58.00
2022-10-02T05:51:38.423Z,58.10
2022-10-02T05:54:25.519Z,58.00
2022-10-02T05:57:10.121Z,57.90
2022-10-02T05:59:50.589Z,57.90
2022-10-02T06:02:43.057Z,58.00
2022-10-02T06:05:45.014Z,58.00
2022-10-02T06:08:26.740Z,58.20
2022-10-02T06:11:03.979Z,58.20
2022-10-02T06:13:46.662Z,58.00
2022-10-02T06:16:48.488Z,58.00
2022-10-02T06:19:53.932Z,57.90
2022-10-02T06:22:35.088Z,58.10
2022-10-02T06:25:19.760Z,58.10
2022-10-02T06:28:14.674Z,58.30
2022-10-02T06:30:49.693Z,58.40
2022-10-02T06:33:28.114Z,58.50
2022-10-02T06:36:16.366Z,58.50
2022-10-02T06:38:59.276Z,58.50
2022-10-02T06:41:50.348Z,58.60
2022-10-02T06:44:20.506Z,58.70
2022-10-02T06:47:19.684Z,58.70
2022-10-02T06:50:04.901Z,58.70
2022-10-02T06:52:52.955Z,58.90
2022-10-02T06:55:29.008Z,58.90
2022-10-02T06:58:10.053Z,58.90
2022-10-02T07:00:56.636Z,58.90
2022-10-02T07:03:47.862Z,59.00
2022-10-02T07:06:36.513Z,59.10
2022-10-02T07:09:24.894Z,59.10
2022-10-02T07:12:00.857Z,59.10
2022-10-02T07:14:41.147Z,59.10
2022-10-02T07:17:26.326Z,59.20
2022-10-02T07:20:07.391Z,59.20
2022-10-02T07:22:47.450Z,59.20
2022-10-02T07:25:59.824Z,59.20
2022-10-02T07:28:57.540Z,59.20
2022-10-02T07:32:12.486Z,59.20
2022-10-02T07:35:02.756Z,59.20
2022-10-02T07:37:38.680Z,59.20
2022-10-02T07:40:24.060Z,59.30
2022-10-02T07:43:06.827Z,59.30
2022-10-02T07:45:46.529Z,59.30
2022-10-02T07:48:30.307Z,59.30
2022-10-02T07:51:37.490Z,59.30
2022-10-02T07:54:40.183Z,59.30
2022-10-02T07:57:31.831Z,59.30
2022-10-02T08:00:15.522Z,59.30
2022-10-02T08:03:15.811Z,59.30
2022-10-02T08:05:55.482Z,59.30
2022-10-02T08:08:31.812Z,59.30
2022-10-02T08:11:40.670Z,59.30
2022-10-02T08:14:43.508Z,59.30
2022-10-02T08:17:25.627Z,59.30
2022-10-02T08:19:59.476Z,59.40
2022-10-02T08:22:48.982Z,59.40
2022-10-02T08:25:32.718Z,59.40
2022-10-02T08:28:34.611Z,59.30
2022-10-02T08:31:10.615Z,59.20
2022-10-02T08:33:41.417Z,59.40
2022-10-02T08:36:27.223Z,59.40
2022-10-02T08:39:35.074Z,59.40
2022-10-02T08:42:31.702Z,59.50
2022-10-02T08:45:40.448Z,59.50
2022-10-02T08:48:35.337Z,59.50
2022-10-02T08:51:27.424Z,59.50
2022-10-02T08:54:33.123Z,59.50
2022-10-02T08:57:14.297Z,59.80
2022-10-02T08:59:50.023Z,60.00
2022-10-02T09:02:56.962Z,60.10
2022-10-02T09:05:48.198Z,60.70
2022-10-02T09:08:36.286Z,60.80
2022-10-02T09:11:24.285Z,60.60
2022-10-02T09:14:11.782Z,60.80
2022-10-02T09:17:18.335Z,61.20
2022-10-02T09:20:21.924Z,60.90
2022-10-02T09:23:28.551Z,60.80
2022-10-02T09:26:10.423Z,61.10
2022-10-02T09:29:12.554Z,60.90
2022-10-02T09:32:05.485Z,60.70
2022-10-02T09:34:52.726Z,60.80
2022-10-02T09:38:01.856Z,61.10
2022-10-02T09:40:44.692Z,60.70
2022-10-02T09:43:53.397Z,60.90
2022-10-02T09:46:51.024Z,61.10
2022-10-02T09:49:45.280Z,60.80
2022-10-02T09:52:21.623Z,60.70
2022-10-02T09:54:58.312Z,60.70
2022-10-02T09:57:55.936Z,61.00
2022-10-02T10:00:51.174Z,60.60
2022-10-02T10:03:38.030Z,60.60
2022-10-02T10:06:19.203Z,60.70
2022-10-02T10:09:05.766Z,60.80
2022-10-02T10:12:08.037Z,60.30
2022-10-02T10:14:56.202Z,60.50
2022-10-02T10:17:47.112Z,60.70
2022-10-02T10:20:29.185Z,60.70
2022-10-02T10:23:23.549Z,60.60
2022-10-02T10:26:16.698Z,60.50
2022-10-02T10:29:22.920Z,60.70
2022-10-02T10:32:04.992Z,60.90
2022-10-02T10:34:47.774Z,61.00
2022-10-02T10:37:54.213Z,60.90
2022-10-02T10:40:42.463Z,61.00
2022-10-02T10:43:39.903Z,60.90
2022-10-02T10:46:51.596Z,60.80
2022-10-02T10:50:07.483Z,60.70
2022-10-02T10:53:02.066Z,60.70
2022-10-02T10:55:53.270Z,60.80
2022-10-02T10:58:59.798Z,60.70
2022-10-02T11:01:51.475Z,60.60
2022-10-02T11:05:05.458Z,60.70
2022-10-02T11:07:41.478Z,60.60
2022-10-02T11:10:32.719Z,60.70
2022-10-02T11:13:27.048Z,60.60
2022-10-02T11:16:34.000Z,60.50
2022-10-02T11:19:21.219Z,60.50
2022-10-02T11:22:28.416Z,60.50
2022-10-02T11:25:15.864Z,60.50
2022-10-02T11:28:16.417Z,60.60
2022-10-02T11:31:10.629Z,60.50
2022-10-02T11:34:13.931Z,60.50
2022-10-02T11:36:49.628Z,60.40
2022-10-02T11:40:10.130Z,60.50
2022-10-02T11:42:52.016Z,60.30
2022-10-02T11:45:39.963Z,60.40
2022-10-02T11:48:34.847Z,60.30
2022-10-02T11:51:23.618Z,60.30
2022-10-02T11:54:14.547Z,60.50
2022-10-02T11:57:25.692Z,60.30
2022-10-02T12:00:07.690Z,60.10
2022-10-02T12:02:46.870Z,60.40
2022-10-02T12:05:17.234Z,60.30
2022-10-02T12:08:03.174Z,60.40
2022-10-02T12:11:09.789Z,60.30
2022-10-02T12:14:04.320Z,60.30
2022-10-02T12:16:58.582Z,60.30
2022-10-02T12:20:16.817Z,60.40
2022-10-02T12:23:17.454Z,60.40
2022-10-02T12:26:23.374Z,60.50
2022-10-02T12:29:14.629Z,60.50
2022-10-02T12:32:14.691Z,60.50
2022-10-02T12:35:00.743Z,60.60
2022-10-02T12:37:43.924Z,60.60
2022-10-02T12:40:48.948Z,60.50
2022-10-02T12:43:52.226Z,60.50
2022-10-02T12:46:49.924Z,60.70
2022-10-02T12:49:39.722Z,60.60
2022-10-02T12:52:46.265Z,60.70
2022-10-02T12:56:00.816Z,60.70
2022-10-02T12:58:41.697Z,60.70
2022-10-02T13:01:32.248Z,60.80
2022-10-02T13:04:33.437Z,60.80
2022-10-02T13:07:18.564Z,60.70
2022-10-02T13:10:23.234Z,60.90
2022-10-02T13:13:11.440Z,60.70
2022-10-02T13:15:49.752Z,61.00
2022-10-02T13:19:00.949Z,60.90
2022-10-02T13:21:42.999Z,60.80
2022-10-02T13:24:23.135Z,61.00
2022-10-02T13:27:18.726Z,61.00
2022-10-02T13:30:16.139Z,61.00
2022-10-02T13:32:53.853Z,60.90
2022-10-02T13:35:29.613Z,60.90
2022-10-02T13:38:30.030Z,61.00
2022-10-02T13:41:14.895Z,60.90
2022-10-02T13:43:59.858Z,61.00
2022-10-02T13:46:30.459Z,61.00
2022-10-02T13:49:10.145Z,61.00
2022-10-02T13:51:49.233Z,61.00
2022-10-02T13:54:40.367Z,61.00
2022-10-02T13:57:43.878Z,61.00
2022-10-02T14:00:45.341Z,61.00
2022-10-02T14:03:41.516Z,61.00
2022-10-02T14:06:27.271Z,61.00
2022-10-02T14:09:30.626Z,61.10
2022-10-02T14:12:22.138Z,61.00
2022-10-02T14:15:25.610Z,61.00
2022-10-02T14:18:17.015Z,61.00
2022-10-02T14:21:14.265Z,61.20
2022-10-02T14:23:59.938Z,61.10
2022-10-02T14:26:44.822Z,61.20
2022-10-02T14:29:55.677Z,61.10
2022-10-02T14:32:40.821Z,61.10
2022-10-02T14:35:29.274Z,61.20
2022-10-02T14:38:02.424Z,61.90
2022-10-02T14:41:03.462Z,61.20
2022-10-02T14:43:46.347Z,61.20
2022-10-02T14:46:22.671Z,61.20
2022-10-02T14:48:55.870Z,61.20
2022-10-02T14:51:53.666Z,61.20
2022-10-02T14:54:33.709Z,61.10
2022-10-02T14:57:16.202Z,61.20
2022-10-02T15:00:00.447Z,61.30
2022-10-02T15:02:55.045Z,61.30
2022-10-02T15:05:52.376Z,61.30
2022-10-02T15:08:45.496Z,61.20
2022-10-02T15:11:57.764Z,61.20
2022-10-02T15:15:04.001Z,61.20
2022-10-02T15:17:58.188Z,61.20
2022-10-02T15:20:35.999Z,61.40
2022-10-02T15:23:09.030Z,61.40
2022-10-02T15:25:57.328Z,61.40
2022-10-02T15:29:02.721Z,61.40
2022-10-02T15:32:04.879Z,61.40
2022-10-02T15:34:55.122Z,61.40
2022-10-02T15:37:54.627Z,61.40
2022-10-02T15:41:02.151Z,61.40
2022-10-02T15:43:45.157Z,61.40
2022-10-02T15:46:36.161Z,61.40
2022-10-02T15:49:21.533Z,61.50
2022-10-02T15:52:10.382Z,61.40
2022-10-02T15:54:52.583Z,61.30
2022-10-02T15:57:43.177Z,61.40
2022-10-02T16:00:22.804Z,61.40
2022-10-02T16:02:55.728Z,61.40
2022-10-02T16:05:47.764Z,61.40
2022-10-02T16:08:45.180Z,61.30
2022-10-02T16:11:48.828Z,61.30
2022-10-02T16:14:37.571Z,61.30
2022-10-02T16:17:23.079Z,62.20
2022-10-02T16:20:05.196Z,62.20
2022-10-02T16:22:41.656Z,61.40
2022-10-02T16:25:38.137Z,61.40
2022-10-02T16:28:18.774Z,61.20
2022-10-02T16:30:55.173Z,62.10
2022-10-02T16:33:42.860Z,61.30
2022-10-02T16:36:35.400Z,61.30
2022-10-02T16:39:30.591Z,61.20
2022-10-02T16:42:15.928Z,61.30
2022-10-02T16:44:57.842Z,62.10
2022-10-02T16:47:33.694Z,61.20
2022-10-02T16:50:16.461Z,61.20
2022-10-02T16:52:51.409Z,61.10
2022-10-02T16:55:30.515Z,61.30
2022-10-02T16:58:09.621Z,61.20
2022-10-02T17:00:54.832Z,61.20
2022-10-02T17:04:26.500Z,61.20
2022-10-02T17:07:20.357Z,61.10
2022-10-02T17:10:19.001Z,61.30
2022-10-02T17:13:03.077Z,61.20
2022-10-02T17:15:54.691Z,61.30
2022-10-02T17:18:36.086Z,61.20
2022-10-02T17:21:18.756Z,61.20
2022-10-02T17:24:16.203Z,61.20
2022-10-02T17:26:55.875Z,61.20
2022-10-02T17:29:38.446Z,61.20
2022-10-02T17:32:11.759Z,61.30
2022-10-02T17:34:51.510Z,61.20
2022-10-02T17:37:22.626Z,61.20
2022-10-02T17:40:14.113Z,61.30
2022-10-02T17:43:16.062Z,61.10
2022-10-02T17:46:00.386Z,61.00
2022-10-02T17:48:43.323Z,61.10
2022-10-02T17:51:51.883Z,61.10
2022-10-02T17:54:48.824Z,61.10
2022-10-02T17:57:33.895Z,61.10
2022-10-02T18:00:12.915Z,61.10
2022-10-02T18:03:03.854Z,61.20
2022-10-02T18:06:00.449Z,61.10
2022-10-02T18:08:48.927Z,61.20
2022-10-02T18:11:31.533Z,61.10
2022-10-02T18:14:02.282Z,61.20
2022-10-02T18:16:47.269Z,61.30
2022-10-02T18:19:26.517Z,61.20
2022-10-02T18:21:58.162Z,61.30
2022-10-02T18:24:37.518Z,61.30
2022-10-02T18:27:50.072Z,61.10
2022-10-02T18:30:34.662Z,61.10
2022-10-02T18:33:24.258Z,61.20
2022-10-02T18:36:03.620Z,61.30
2022-10-02T18:39:00.696Z,61.40
2022-10-02T18:41:53.334Z,61.10
2022-10-02T18:44:31.355Z,61.30
2022-10-02T18:47:22.355Z,61.30
2022-10-02T18:50:33.452Z,61.30
2022-10-02T18:53:24.695Z,61.30
2022-10-02T18:56:15.218Z,61.30
2022-10-02T18:59:14.573Z,61.20
2022-10-02T19:02:16.836Z,61.20
2022-10-02T19:05:15.652Z,61.20
2022-10-02T19:07:48.624Z,61.30
2022-10-02T19:10:41.969Z,61.40
2022-10-02T19:13:30.481Z,61.30
2022-10-02T19:16:18.565Z,61.30
2022-10-02T19:18:48.781Z,61.40
2022-10-02T19:21:22.770Z,61.40
2022-10-02T19:23:58.018Z,61.40
2022-10-02T19:26:34.876Z,61.40
2022-10-02T19:29:18.469Z,61.40
2022-10-02T19:31:48.810Z,61.40
2022-10-02T19:34:29.286Z,61.50
2022-10-02T19:37:07.320Z,61.40
2022-10-02T19:39:42.986Z,61.40
2022-10-02T19:42:20.396Z,61.40
2022-10-02T19:44:54.900Z,61.40
2022-10-02T19:47:39.878Z,61.50
2022-10-02T19:50:43.468Z,61.40
2022-10-02T19:53:36.955Z,61.40
2022-10-02T19:56:14.647Z,61.40
2022-10-02T19:58:50.777Z,61.50
2022-10-02T20:01:35.601Z,61.60
2022-10-02T20:04:07.830Z,61.60
2022-10-02T20:06:41.914Z,61.60
2022-10-02T20:09:36.272Z,61.60
2022-10-02T20:12:26.595Z,62.60
2022-10-02T20:15:07.908Z,61.90
2022-10-02T20:17:39.701Z,61.90
2022-10-02T20:20:18.250Z,61.90
2022-10-02T20:22:58.311Z,61.90
2022-10-02T20:25:32.591Z,61.90
2022-10-02T20:28:42.689Z,62.00
2022-10-02T20:31:21.525Z,62.10
2022-10-02T20:33:57.639Z,62.10
2022-10-02T20:36:32.582Z,62.10
2022-10-02T20:39:11.455Z,62.10
2022-10-02T20:42:07.782Z,62.10
2022-10-02T20:44:39.081Z,62.20
2022-10-02T20:47:45.840Z,62.20
2022-10-02T20:50:47.263Z,62.20
2022-10-02T20:53:23.889Z,62.40
2022-10-02T20:56:12.676Z,62.40
2022-10-02T20:59:08.395Z,62.40
2022-10-02T21:02:12.435Z,62.50
2022-10-02T21:05:01.970Z,62.50
2022-10-02T21:07:55.225Z,62.70
2022-10-02T21:10:42.268Z,62.80
2022-10-02T21:13:38.090Z,63.00
2022-10-02T21:16:14.645Z,62.80
2022-10-02T21:18:44.880Z,62.80
2022-10-02T21:21:37.734Z,62.80
2022-10-02T21:24:41.153Z,62.90
2022-10-02T21:27:11.386Z,63.00
2022-10-02T21:30:11.969Z,63.60
2022-10-02T21:33:07.385Z,62.90
2022-10-02T21:35:59.529Z,62.70
2022-10-02T21:38:51.530Z,62.70
2022-10-02T21:41:48.951Z,62.70
2022-10-02T21:44:34.907Z,62.70
2022-10-02T21:47:26.323Z,62.70
2022-10-02T21:50:08.619Z,62.80
2022-10-02T21:53:11.296Z,62.80
2022-10-02T21:56:16.492Z,62.80
2022-10-02T21:59:04.824Z,62.80
2022-10-02T22:02:04.096Z,62.80
2022-10-02T22:04:37.779Z,63.50
2022-10-02T22:07:45.836Z,62.70
2022-10-02T22:10:30.772Z,62.80
2022-10-02T22:13:19.857Z,62.70
2022-10-02T22:15:56.915Z,62.90
2022-10-02T22:18:35.947Z,62.90
2022-10-02T22:21:24.064Z,62.60
2022-10-02T22:24:00.007Z,62.60
2022-10-02T22:27:00.793Z,62.60
2022-10-02T22:29:44.138Z,63.10
2022-10-02T22:32:56.691Z,63.10
2022-10-02T22:35:36.157Z,63.20
2022-10-02T22:38:33.346Z,63.20
2022-10-02T22:41:18.387Z,63.40
2022-10-02T22:43:52.312Z,63.30
2022-10-02T22:46:52.990Z,63.40
2022-10-02T22:49:40.566Z,63.50
2022-10-02T22:52:22.867Z,63.40
2022-10-02T22:55:14.715Z,63.50
2022-10-02T22:57:59.491Z,63.60
2022-10-02T23:00:38.219Z,63.50
2022-10-02T23:03:21.147Z,63.60
2022-10-02T23:06:06.647Z,63.40
2022-10-02T23:08:43.349Z,63.30
2022-10-02T23:11:31.388Z,63.50
2022-10-02T23:14:27.812Z,63.60
2022-10-02T23:17:26.775Z,63.60
2022-10-02T23:20:09.328Z,63.60
2022-10-02T23:23:21.673Z,63.60
2022-10-02T23:25:58.322Z,63.80
2022-10-02T23:28:42.903Z,63.70
2022-10-02T23:31:35.307Z,63.60
2022-10-02T23:34:32.666Z,63.50
2022-10-02T23:37:18.227Z,63.30
2022-10-02T23:40:06.273Z,63.40
2022-10-02T23:42:42.871Z,63.10
2022-10-02T23:45:38.967Z,63.30
2022-10-02T23:48:15.237Z,63.20
2022-10-02T23:51:10.948Z,63.20
2022-10-02T23:53:59.575Z,63.20
2022-10-02T23:56:50.536Z,63.20
2022-10-02T23:59:28.598Z,63.20
